Time;durP1;ratioP1;P1;durP2;ratioP2;P2;SDS_P1;SDS_P2;PMS_P1;PMS_P2;Temp;Humidity;BMP_temperature;BMP_pressure;BME280_temperature;BME280_humidity;BME280_pressure;Samples;Min_cycle;Max_cycle;Signal;HPM_P1;HPM_P2
2024/01/26 00:00:22;;;;;;;0.90;0.30;;;;;;;2.38;100.00;99610.83;104854;1253;61720;-54
2024/01/26 00:02:50;;;;;;;0.80;0.40;;;;;;;2.35;100.00;99614.23;104842;1254;74277;-55
2024/01/26 00:05:17;;;;;;;0.50;0.30;;;;;;;2.33;100.00;99613.20;104957;1259;66745;-57
2024/01/26 00:07:45;;;;;;;0.70;0.50;;;;;;;2.31;100.00;99609.87;105023;1259;73011;-56
2024/01/26 00:10:13;;;;;;;0.50;0.30;;;;;;;2.31;100.00;99611.64;105575;1255;60505;-54
2024/01/26 00:12:40;;;;;;;0.70;0.30;;;;;;;2.32;100.00;99610.91;105222;1253;60534;-54
2024/01/26 00:15:08;;;;;;;0.50;0.30;;;;;;;2.33;100.00;99610.55;105145;1258;73856;-56
2024/01/26 00:17:35;;;;;;;0.30;0.20;;;;;;;2.33;100.00;99613.20;105198;1259;66856;-59
2024/01/26 00:20:05;;;;;;;0.50;0.30;;;;;;;2.31;100.00;99612.70;104938;1258;72714;-56
2024/01/26 00:22:33;;;;;;;0.40;0.30;;;;;;;2.28;100.00;99614.36;105032;1254;62340;-54
2024/01/26 00:25:00;;;;;;;0.50;0.40;;;;;;;2.24;100.00;99616.71;104881;1254;60620;-57
2024/01/26 00:27:28;;;;;;;0.30;0.30;;;;;;;2.22;100.00;99618.16;105038;1256;73828;-58
2024/01/26 00:29:55;;;;;;;0.40;0.20;;;;;;;2.20;100.00;99615.20;105389;1253;66057;-55
2024/01/26 00:32:23;;;;;;;0.20;0.20;;;;;;;2.20;100.00;99614.84;106026;1254;72801;-58
2024/01/26 00:34:50;;;;;;;0.20;0.20;;;;;;;2.20;100.00;99614.31;104948;1259;60506;-56
2024/01/26 00:37:17;;;;;;;0.30;0.30;;;;;;;2.21;100.00;99620.84;104996;1254;60556;-55
2024/01/26 00:39:45;;;;;;;0.70;0.40;;;;;;;2.23;100.00;99622.73;104819;1254;73943;-57
2024/01/26 00:42:13;;;;;;;0.30;0.30;;;;;;;2.21;100.00;99627.03;105025;1259;64728;-56
2024/01/26 00:44:40;;;;;;;0.30;0.20;;;;;;;2.18;100.00;99628.51;104701;1259;72441;-57
2024/01/26 00:47:08;;;;;;;0.60;0.30;;;;;;;2.15;100.00;99625.89;105002;1258;60399;-54
2024/01/26 00:49:35;;;;;;;0.40;0.30;;;;;;;2.12;100.00;99626.83;105194;1254;62178;-56
2024/01/26 00:52:15;;;;;;;0.40;0.20;;;;;;;2.08;100.00;99630.08;104940;1259;73854;-56
2024/01/26 00:54:42;;;;;;;0.40;0.30;;;;;;;2.05;100.00;99625.69;105045;1254;65637;-55
2024/01/26 00:57:09;;;;;;;0.30;0.20;;;;;;;2.03;100.00;99628.21;104823;1256;70466;-55
2024/01/26 00:59:37;;;;;;;0.40;0.30;;;;;;;2.04;100.00;99629.44;104878;1254;60531;-56
2024/01/26 01:02:04;;;;;;;2.40;0.60;;;;;;;2.03;100.00;99629.10;104733;1253;60498;-57
2024/01/26 01:04:33;;;;;;;0.40;0.30;;;;;;;2.02;100.00;99631.42;104711;1259;74895;-57
2024/01/26 01:07:00;;;;;;;0.40;0.30;;;;;;;2.01;100.00;99632.86;104961;1259;67420;-55
2024/01/26 01:09:27;;;;;;;0.40;0.20;;;;;;;1.99;100.00;99632.17;104894;1254;73857;-55
2024/01/26 01:11:55;;;;;;;0.30;0.20;;;;;;;1.97;100.00;99634.48;104767;1254;60451;-57
2024/01/26 01:14:22;;;;;;;0.30;0.20;;;;;;;1.95;100.00;99635.26;104944;1259;60561;-54
2024/01/26 01:16:50;;;;;;;0.30;0.30;;;;;;;1.93;100.00;99634.05;104844;1258;72681;-57
2024/01/26 01:19:17;;;;;;;0.20;0.20;;;;;;;1.93;100.00;99635.64;104823;1259;65857;-56
2024/01/26 01:21:45;;;;;;;0.20;0.20;;;;;;;1.91;100.00;99633.36;104864;1259;72743;-53
2024/01/26 01:24:12;;;;;;;0.30;0.10;;;;;;;1.92;100.00;99631.92;104920;1257;60492;-56
2024/01/26 01:26:39;;;;;;;0.80;0.20;;;;;;;1.93;100.00;99629.61;104745;1254;60463;-58
2024/01/26 01:29:07;;;;;;;0.30;0.20;;;;;;;1.95;100.00;99628.16;104948;1254;72647;-56
2024/01/26 01:31:34;;;;;;;0.30;0.20;;;;;;;1.98;100.00;99633.07;105067;1254;65960;-57
2024/01/26 01:34:02;;;;;;;0.30;0.30;;;;;;;1.99;100.00;99634.83;104878;1257;71448;-54
2024/01/26 01:36:29;;;;;;;0.40;0.30;;;;;;;2.00;100.00;99637.65;104920;1254;64448;-57
2024/01/26 01:38:57;;;;;;;0.40;0.30;;;;;;;1.98;100.00;99636.96;104882;1253;61282;-55
2024/01/26 01:41:24;;;;;;;0.40;0.30;;;;;;;1.94;100.00;99636.69;104867;1259;75042;-55
2024/01/26 01:43:55;;;;;;;0.30;0.20;;;;;;;1.93;100.00;99636.70;104583;1254;67508;-56
2024/01/26 01:46:22;;;;;;;0.30;0.20;;;;;;;1.90;100.00;99642.39;104869;1256;71377;-55
2024/01/26 01:48:50;;;;;;;0.30;0.20;;;;;;;1.89;100.00;99646.83;104907;1254;60559;-54
2024/01/26 01:51:17;;;;;;;0.30;0.20;;;;;;;1.88;100.00;99645.07;105007;1259;60444;-56
2024/01/26 01:53:45;;;;;;;0.30;0.20;;;;;;;1.89;100.00;99646.48;104728;1254;74672;-59
2024/01/26 01:56:13;;;;;;;2.10;0.40;;;;;;;1.92;100.00;99646.09;105133;1253;65174;-55
2024/01/26 01:58:41;;;;;;;0.30;0.30;;;;;;;1.96;100.00;99649.23;104642;1254;72743;-55
2024/01/26 02:01:08;;;;;;;0.40;0.30;;;;;;;1.98;100.00;99653.06;104822;1254;60547;-54
2024/01/26 02:03:36;;;;;;;0.80;0.40;;;;;;;1.99;100.00;99654.29;104703;1255;60534;-55
2024/01/26 02:06:04;;;;;;;0.50;0.30;;;;;;;2.00;100.00;99655.70;107498;1256;72901;-56
2024/01/26 02:08:31;;;;;;;1.10;0.40;;;;;;;1.98;100.00;99654.84;108994;1253;66743;-56
2024/01/26 02:10:58;;;;;;;0.40;0.40;;;;;;;1.95;100.00;99660.21;108924;1253;72749;-59
2024/01/26 02:13:26;;;;;;;0.30;0.30;;;;;;;1.92;100.00;99662.90;108799;1253;61953;-59
2024/01/26 02:15:53;;;;;;;0.30;0.30;;;;;;;1.92;100.00;99663.96;104758;1256;60906;-56
2024/01/26 02:18:20;;;;;;;0.40;0.30;;;;;;;1.92;100.00;99664.86;105025;1257;73047;-55
2024/01/26 02:20:48;;;;;;;0.40;0.30;;;;;;;1.90;100.00;99664.52;106703;1254;65834;-55
2024/01/26 02:23:23;;;;;;;0.30;0.30;;;;;;;1.91;100.00;99669.98;105007;1259;72704;-56
2024/01/26 02:25:50;;;;;;;0.60;0.30;;;;;;;1.94;100.00;99672.44;108058;1256;58507;-55
2024/01/26 02:28:18;;;;;;;0.30;0.30;;;;;;;1.94;100.00;99673.48;105010;1259;60756;-55
2024/01/26 02:30:45;;;;;;;0.40;0.40;;;;;;;1.96;100.00;99674.17;104973;1257;73919;-55
2024/01/26 02:33:13;;;;;;;0.40;0.40;;;;;;;1.98;100.00;99672.54;108946;1256;66766;-56
2024/01/26 02:35:40;;;;;;;0.40;0.30;;;;;;;1.99;100.00;99674.29;108996;1253;71438;-54
2024/01/26 02:38:08;;;;;;;0.30;0.30;;;;;;;1.99;100.00;99677.48;104927;1257;60547;-55
2024/01/26 02:40:36;;;;;;;0.50;0.30;;;;;;;1.98;100.00;99679.96;106414;1257;60325;-55
2024/01/26 02:43:04;;;;;;;0.30;0.30;;;;;;;1.97;100.00;99679.80;104856;1255;74283;-56
2024/01/26 02:45:31;;;;;;;0.40;0.30;;;;;;;1.95;100.00;99681.80;109087;1253;65811;-56
2024/01/26 02:47:59;;;;;;;0.40;0.30;;;;;;;1.93;100.00;99679.88;107219;1256;71062;-55
2024/01/26 02:50:27;;;;;;;0.50;0.30;;;;;;;1.94;100.00;99685.54;104793;1253;65054;-56
2024/01/26 02:52:54;;;;;;;0.40;0.30;;;;;;;1.94;100.00;99687.65;105174;1253;60601;-54
2024/01/26 02:55:21;;;;;;;0.50;0.30;;;;;;;1.97;100.00;99691.83;104991;1258;74341;-54
2024/01/26 02:57:49;;;;;;;0.50;0.30;;;;;;;2.00;100.00;99692.16;104910;1253;67573;-54
2024/01/26 03:00:16;;;;;;;0.90;0.40;;;;;;;2.03;100.00;99698.48;104983;1259;71528;-54
2024/01/26 03:02:44;;;;;;;0.80;0.40;;;;;;;2.05;100.00;99700.56;104825;1256;60652;-55
2024/01/26 03:05:13;;;;;;;0.40;0.40;;;;;;;2.04;100.00;99701.66;104842;1259;60515;-56
2024/01/26 03:07:40;;;;;;;0.50;0.40;;;;;;;2.02;100.00;99703.11;104870;1259;72485;-55
2024/01/26 03:10:08;;;;;;;0.30;0.30;;;;;;;1.97;100.00;99707.08;104869;1253;67436;-58
2024/01/26 03:12:35;;;;;;;0.20;0.20;;;;;;;1.93;100.00;99705.37;106758;1256;72518;-58
2024/01/26 03:15:03;;;;;;;0.20;0.20;;;;;;;1.91;100.00;99706.98;104940;1259;61141;-57
2024/01/26 03:17:31;;;;;;;0.30;0.30;;;;;;;1.89;100.00;99705.23;104716;1254;60556;-56
2024/01/26 03:19:58;;;;;;;0.20;0.20;;;;;;;1.89;100.00;99705.21;105740;1256;73950;-57
2024/01/26 03:22:25;;;;;;;0.20;0.20;;;;;;;1.93;100.00;99710.49;104806;1259;66898;-58
2024/01/26 03:24:53;;;;;;;0.30;0.20;;;;;;;1.94;100.00;99708.18;105029;1254;73226;-57
2024/01/26 03:27:20;;;;;;;0.20;0.20;;;;;;;1.95;100.00;99713.13;104847;1259;60549;-57
2024/01/26 03:29:48;;;;;;;0.40;0.30;;;;;;;1.94;100.00;99712.77;105086;1253;60472;-56
2024/01/26 03:32:15;;;;;;;0.50;0.30;;;;;;;1.94;100.00;99715.61;104766;1254;76460;-56
2024/01/26 03:34:42;;;;;;;0.30;0.30;;;;;;;1.92;100.00;99717.23;104683;1254;65587;-57
2024/01/26 03:37:10;;;;;;;0.50;0.30;;;;;;;1.88;100.00;99720.11;105395;1258;72479;-56
2024/01/26 03:39:37;;;;;;;0.40;0.30;;;;;;;1.84;100.00;99723.88;104668;1259;60548;-56
2024/01/26 03:42:05;;;;;;;0.50;0.30;;;;;;;1.81;100.00;99724.98;104933;1259;60908;-57
2024/01/26 03:44:32;;;;;;;0.40;0.30;;;;;;;1.78;100.00;99727.85;105349;1254;72652;-59
2024/01/26 03:47:00;;;;;;;0.30;0.20;;;;;;;1.77;100.00;99726.64;104959;1254;67136;-55
2024/01/26 03:49:27;;;;;;;0.30;0.20;;;;;;;1.78;100.00;99725.92;105016;1259;73182;-57
2024/01/26 03:51:55;;;;;;;0.20;0.20;;;;;;;1.78;100.00;99726.81;104938;1258;61010;-57
2024/01/26 03:54:22;;;;;;;0.30;0.30;;;;;;;1.80;100.00;99721.98;105123;1254;61022;-56
2024/01/26 03:56:49;;;;;;;0.20;0.10;;;;;;;1.83;100.00;99732.73;105000;1252;74358;-57
2024/01/26 03:59:18;;;;;;;0.40;0.30;;;;;;;1.87;100.00;99735.50;104945;1259;66865;-57
2024/01/26 04:01:46;;;;;;;0.30;0.30;;;;;;;1.88;100.00;99737.63;104949;1254;72671;-57
2024/01/26 04:04:13;;;;;;;0.40;0.30;;;;;;;1.86;100.00;99740.48;105022;1258;60487;-57
2024/01/26 04:06:41;;;;;;;1.40;0.30;;;;;;;1.82;100.00;99746.91;105421;1254;60457;-56
2024/01/26 04:09:09;;;;;;;0.40;0.30;;;;;;;1.77;100.00;99748.58;105929;1254;74528;-56
2024/01/26 04:11:36;;;;;;;0.40;0.30;;;;;;;1.74;100.00;99747.02;105035;1257;67226;-57
2024/01/26 04:14:04;;;;;;;0.20;0.20;;;;;;;1.73;100.00;99752.52;104930;1252;72141;-57
2024/01/26 04:16:31;;;;;;;0.40;0.20;;;;;;;1.72;100.00;99755.70;104860;1254;63135;-53
2024/01/26 04:18:58;;;;;;;0.20;0.20;;;;;;;1.71;100.00;99753.05;104925;1259;60534;-59
2024/01/26 04:21:26;;;;;;;0.30;0.20;;;;;;;1.72;100.00;99764.02;104924;1254;72468;-57
2024/01/26 04:23:54;;;;;;;0.30;0.20;;;;;;;1.75;100.00;99764.70;105309;1254;67977;-59
2024/01/26 04:26:21;;;;;;;0.20;0.20;;;;;;;1.78;100.00;99763.43;104962;1256;72715;-57
2024/01/26 04:28:49;;;;;;;0.20;0.20;;;;;;;1.79;100.00;99766.92;105034;1254;60390;-57
2024/01/26 04:31:16;;;;;;;0.30;0.20;;;;;;;1.81;100.00;99769.57;105023;1253;60670;-57
2024/01/26 04:33:44;;;;;;;0.40;0.30;;;;;;;1.80;100.00;99768.50;104838;1259;73927;-58
2024/01/26 04:36:11;;;;;;;0.40;0.30;;;;;;;1.79;100.00;99768.17;104869;1259;68786;-57
2024/01/26 04:38:39;;;;;;;0.40;0.30;;;;;;;1.77;100.00;99774.41;106114;1254;71491;-57
2024/01/26 04:41:06;;;;;;;0.30;0.30;;;;;;;1.75;100.00;99775.85;104955;1254;63099;-57
2024/01/26 04:43:34;;;;;;;0.20;0.20;;;;;;;1.73;100.00;99779.23;104758;1253;60531;-57
2024/01/26 04:46:01;;;;;;;0.20;0.20;;;;;;;1.70;100.00;99780.48;104814;1254;72650;-57
2024/01/26 04:48:29;;;;;;;0.40;0.40;;;;;;;1.69;100.00;99779.99;104769;1253;66720;-56
2024/01/26 04:50:56;;;;;;;0.50;0.40;;;;;;;1.71;100.00;99780.84;105526;1253;71827;-57
2024/01/26 04:53:24;;;;;;;0.60;0.40;;;;;;;1.74;100.00;99781.34;104895;1256;60694;-57
2024/01/26 04:55:51;;;;;;;0.50;0.40;;;;;;;1.75;100.00;99782.04;104642;1258;60460;-56
2024/01/26 05:01:18;;;;;;;0.40;0.40;;;;;;;1.78;100.00;99896.83;101890;1295;600653;-57
2024/01/26 05:03:46;;;;;;;0.60;0.50;;;;;;;1.75;100.00;99912.42;103925;1271;59349;-58
2024/01/26 05:06:14;;;;;;;0.50;0.40;;;;;;;1.73;100.00;99897.05;108235;1266;60337;-58
2024/01/26 05:08:41;;;;;;;0.40;0.40;;;;;;;1.70;100.00;99888.58;104851;1269;71383;-56
2024/01/26 05:11:08;;;;;;;0.50;0.50;;;;;;;1.68;100.00;99885.27;103903;1268;66756;-55
2024/01/26 05:13:36;;;;;;;0.50;0.40;;;;;;;1.65;100.00;99883.86;104044;1271;72837;-57
2024/01/26 05:16:03;;;;;;;0.50;0.40;;;;;;;1.63;100.00;99879.10;103938;1267;164718;-57
2024/01/26 05:18:31;;;;;;;0.50;0.50;;;;;;;1.61;100.00;99877.02;104317;1268;59691;-58
2024/01/26 05:20:58;;;;;;;0.50;0.40;;;;;;;1.63;100.00;99873.98;104100;1268;71776;-57
2024/01/26 05:23:26;;;;;;;0.40;0.40;;;;;;;1.63;100.00;99872.20;103953;1269;65700;-57
2024/01/26 05:25:53;;;;;;;0.50;0.50;;;;;;;1.65;100.00;99876.44;104198;1266;71491;-58
2024/01/26 05:28:21;;;;;;;0.40;0.40;;;;;;;1.66;100.00;99882.45;104017;1263;59741;-58
2024/01/26 05:30:48;;;;;;;0.80;0.50;;;;;;;1.65;100.00;99881.39;104047;1269;60122;-58
2024/01/26 05:33:15;;;;;;;0.40;0.40;;;;;;;1.65;100.00;99882.63;104271;1268;71866;-57
2024/01/26 05:35:43;;;;;;;0.50;0.40;;;;;;;1.63;100.00;99886.00;104195;1269;66141;-58
2024/01/26 05:38:10;;;;;;;1.70;0.50;;;;;;;1.61;100.00;99885.69;104203;1269;73003;-58
2024/01/26 05:40:37;;;;;;;0.60;0.50;;;;;;;1.59;100.00;99885.89;104186;1270;59726;-58
2024/01/26 05:43:05;;;;;;;0.40;0.40;;;;;;;1.58;100.00;99882.17;108335;1264;60077;-59
2024/01/26 05:45:32;;;;;;;0.40;0.40;;;;;;;1.57;100.00;99882.17;105510;1269;71815;-57
2024/01/26 05:47:59;;;;;;;0.70;0.50;;;;;;;1.55;100.00;99877.95;104061;1264;67536;-58
2024/01/26 05:50:27;;;;;;;0.40;0.40;;;;;;;1.56;100.00;99882.71;104206;1267;70463;-59
2024/01/26 05:52:54;;;;;;;0.40;0.40;;;;;;;1.58;100.00;99883.41;104891;1270;59871;-57
2024/01/26 05:55:21;;;;;;;0.50;0.40;;;;;;;1.61;100.00;99890.27;104489;1269;60088;-58
2024/01/26 05:57:49;;;;;;;0.60;0.60;;;;;;;1.64;100.00;99894.48;104044;1273;71837;-57
2024/01/26 06:00:16;;;;;;;0.60;0.40;;;;;;;1.64;100.00;99899.26;104005;1268;67007;-59
2024/01/26 06:02:45;;;;;;;0.40;0.30;;;;;;;1.63;100.00;99902.10;104048;1269;72427;-59
2024/01/26 06:05:13;;;;;;;0.50;0.40;;;;;;;1.61;100.00;99901.07;104409;1264;60298;-57
2024/01/26 06:07:40;;;;;;;0.40;0.30;;;;;;;1.59;100.00;99903.58;105139;1266;59730;-59
2024/01/26 06:10:08;;;;;;;3.30;0.40;;;;;;;1.56;100.00;99905.00;104191;1263;71833;-58
2024/01/26 06:12:40;;;;;;;0.60;0.40;;;;;;;1.55;100.00;99904.48;104902;1269;67000;-58
2024/01/26 06:15:10;;;;;;;0.40;0.30;;;;;;;1.54;100.00;99910.33;105069;1269;70765;-58
2024/01/26 06:17:41;;;;;;;0.60;0.40;;;;;;;1.53;100.00;99915.14;104234;1271;59839;-58
2024/01/26 06:20:09;;;;;;;0.50;0.40;;;;;;;1.53;100.00;99915.13;103961;1264;60529;-59
2024/01/26 06:22:37;;;;;;;0.30;0.30;;;;;;;1.54;100.00;99915.98;104188;1269;74234;-60
2024/01/26 06:25:04;;;;;;;0.70;0.40;;;;;;;1.56;100.00;99920.92;103979;1272;67691;-58
2024/01/26 06:27:32;;;;;;;1.90;0.40;;;;;;;1.55;100.00;99930.65;104027;1266;73326;-58
2024/01/26 06:29:59;;;;;;;0.40;0.30;;;;;;;1.56;100.00;99937.37;103955;1265;59923;-58
2024/01/26 06:32:27;;;;;;;0.60;0.40;;;;;;;1.57;100.00;99936.30;104436;1263;60065;-58
2024/01/26 06:34:54;;;;;;;0.60;0.40;;;;;;;1.56;100.00;99934.71;104216;1266;71940;-59
2024/01/26 06:37:22;;;;;;;0.60;0.30;;;;;;;1.54;100.00;99937.20;104044;1268;67305;-59
2024/01/26 06:39:50;;;;;;;0.30;0.30;;;;;;;1.53;100.00;99937.39;104246;1270;71545;-57
2024/01/26 06:42:25;;;;;;;0.40;0.30;;;;;;;1.54;100.00;99938.97;104255;1270;61150;-59
2024/01/26 06:44:55;;;;;;;0.40;0.30;;;;;;;1.56;100.00;99942.85;106227;1269;60137;-59
2024/01/26 06:47:23;;;;;;;0.40;0.30;;;;;;;1.59;100.00;99944.08;104157;1270;71825;-59
2024/01/26 06:49:50;;;;;;;0.50;0.40;;;;;;;1.61;100.00;99948.64;104421;1269;64907;-60
2024/01/26 06:52:18;;;;;;;3.50;0.30;;;;;;;1.63;100.00;99950.74;105254;1263;73234;-58
2024/01/26 06:54:45;;;;;;;0.50;0.40;;;;;;;1.65;100.00;99954.98;104635;1263;59740;-60
2024/01/26 06:57:12;;;;;;;0.50;0.50;;;;;;;1.68;100.00;99963.27;104600;1268;59633;-59
2024/01/26 06:59:40;;;;;;;0.60;0.50;;;;;;;1.68;100.00;99961.15;104502;1260;73065;-59
2024/01/26 07:02:07;;;;;;;0.60;0.50;;;;;;;1.67;100.00;99964.70;104487;1257;67390;-59
2024/01/26 07:04:34;;;;;;;0.50;0.50;;;;;;;1.63;100.00;99963.48;104813;1266;72726;-59
2024/01/26 07:07:02;;;;;;;1.40;0.70;;;;;;;1.59;100.00;99964.06;104643;1265;59753;-59
2024/01/26 07:09:29;;;;;;;0.70;0.50;;;;;;;1.57;100.00;99967.08;104533;1257;60125;-59
2024/01/26 07:11:57;;;;;;;0.70;0.70;;;;;;;1.55;100.00;99970.62;104691;1262;73495;-59
2024/01/26 07:14:25;;;;;;;0.70;0.50;;;;;;;1.53;100.00;99973.27;105481;1258;67519;-59
2024/01/26 07:16:52;;;;;;;0.90;0.70;;;;;;;1.53;100.00;99974.73;104483;1264;72732;-59
2024/01/26 07:19:20;;;;;;;0.70;0.50;;;;;;;1.56;100.00;99980.52;104560;1268;60964;-59
2024/01/26 07:21:47;;;;;;;0.60;0.50;;;;;;;1.59;100.00;99980.15;104524;1258;59675;-59
2024/01/26 07:24:15;;;;;;;0.90;0.70;;;;;;;1.64;100.00;99991.42;104573;1261;72723;-59
2024/01/26 07:26:43;;;;;;;1.50;0.60;;;;;;;1.67;100.00;99994.23;105076;1257;66942;-59
2024/01/26 07:29:10;;;;;;;0.80;0.60;;;;;;;1.67;100.00;99995.83;104858;1263;73829;-59
2024/01/26 07:31:37;;;;;;;2.30;0.70;;;;;;;1.67;100.00;99992.29;104626;1266;59638;-58
2024/01/26 07:34:05;;;;;;;0.90;0.70;;;;;;;1.65;100.00;99995.48;105179;1258;60212;-59
2024/01/26 07:36:36;;;;;;;1.00;0.60;;;;;;;1.62;100.00;99996.03;104691;1258;70764;-59
2024/01/26 07:39:08;;;;;;;0.80;0.60;;;;;;;1.62;100.00;100000.11;105222;1264;67600;-59
2024/01/26 07:41:36;;;;;;;0.80;0.50;;;;;;;1.61;100.00;100003.48;104524;1257;73034;-59
2024/01/26 07:44:03;;;;;;;0.60;0.50;;;;;;;1.61;100.00;100008.80;104694;1261;59906;-58
2024/01/26 07:46:31;;;;;;;1.20;0.60;;;;;;;1.64;100.00;100012.30;104448;1256;60313;-58
2024/01/26 07:49:00;;;;;;;0.90;0.70;;;;;;;1.67;100.00;100018.65;104443;1257;73609;-57
2024/01/26 07:51:28;;;;;;;0.70;0.50;;;;;;;1.67;100.00;100022.90;108663;1256;66232;-59
2024/01/26 07:53:55;;;;;;;1.80;1.20;;;;;;;1.67;100.00;100027.67;107247;1264;74214;-58
2024/01/26 07:56:23;;;;;;;1.20;0.70;;;;;;;1.66;100.00;100030.34;104564;1264;59875;-58
2024/01/26 07:58:50;;;;;;;1.80;0.70;;;;;;;1.66;100.00;100033.52;104459;1258;60085;-58
2024/01/26 08:01:18;;;;;;;1.60;1.10;;;;;;;1.65;100.00;100042.02;108901;1254;72831;-56
2024/01/26 08:03:46;;;;;;;1.50;0.90;;;;;;;1.66;100.00;100044.30;107245;1257;69429;-57
2024/01/26 08:06:16;;;;;;;0.70;0.60;;;;;;;1.67;100.00;100053.15;108708;1257;71110;-57
2024/01/26 08:08:44;;;;;;;2.70;0.80;;;;;;;1.67;100.00;100056.15;108936;1254;59682;-58
2024/01/26 08:11:11;;;;;;;1.10;0.50;;;;;;;1.68;100.00;100057.04;108748;1254;60534;-57
2024/01/26 08:13:39;;;;;;;0.80;0.60;;;;;;;1.71;100.00;100062.30;108959;1256;73352;-58
2024/01/26 08:16:06;;;;;;;0.90;0.90;;;;;;;1.75;100.00;100061.92;108743;1254;66780;-58
2024/01/26 08:18:33;;;;;;;1.30;0.50;;;;;;;1.76;100.00;100063.16;108835;1257;72632;-57
2024/01/26 08:21:01;;;;;;;1.70;1.30;;;;;;;1.80;100.00;100069.48;108753;1254;59354;-58
2024/01/26 08:23:28;;;;;;;1.40;0.90;;;;;;;1.80;100.00;100065.94;108944;1254;58807;-58
2024/01/26 08:25:56;;;;;;;1.10;0.50;;;;;;;1.80;100.00;100066.11;108858;1254;75236;-57
2024/01/26 08:28:23;;;;;;;0.80;0.50;;;;;;;1.80;100.00;100072.85;105196;1254;65866;-57
2024/01/26 08:30:51;;;;;;;0.60;0.40;;;;;;;1.79;100.00;100074.29;108759;1254;71877;-57
2024/01/26 08:33:19;;;;;;;0.50;0.40;;;;;;;1.78;100.00;100079.41;108827;1257;59703;-57
2024/01/26 08:35:47;;;;;;;0.50;0.30;;;;;;;1.81;100.00;100085.41;108861;1254;58424;-57
2024/01/26 08:38:14;;;;;;;0.70;0.40;;;;;;;1.85;100.00;100086.80;106865;1254;73486;-56
2024/01/26 08:40:42;;;;;;;0.60;0.30;;;;;;;1.92;100.00;100093.30;104673;1257;66974;-57
2024/01/26 08:43:09;;;;;;;0.40;0.40;;;;;;;1.94;100.00;100090.10;104532;1254;71861;-57
2024/01/26 08:45:37;;;;;;;0.70;0.50;;;;;;;1.97;100.00;100094.84;104679;1258;59772;-57
2024/01/26 08:48:05;;;;;;;0.60;0.50;;;;;;;1.98;100.00;100098.20;104623;1260;59701;-57
2024/01/26 08:50:33;;;;;;;0.60;0.40;;;;;;;1.95;100.00;100096.81;105506;1254;71317;-58
2024/01/26 08:53:00;;;;;;;0.50;0.40;;;;;;;1.92;100.00;100095.59;107031;1260;66721;-57
2024/01/26 08:55:27;;;;;;;0.40;0.30;;;;;;;1.91;100.00;100097.37;104837;1259;72717;-57
2024/01/26 08:57:55;;;;;;;0.50;0.30;;;;;;;1.89;100.00;100097.38;104933;1257;59754;-56
2024/01/26 09:00:22;;;;;;;0.70;0.50;;;;;;;1.90;100.00;100102.86;104850;1261;59704;-55
2024/01/26 09:02:50;;;;;;;0.50;0.40;;;;;;;1.90;100.00;100106.23;104835;1261;73125;-59
2024/01/26 09:05:17;;;;;;;1.20;0.50;;;;;;;1.89;100.00;100105.34;105664;1254;66055;-58
2024/01/26 09:07:45;;;;;;;0.60;0.50;;;;;;;1.90;100.00;100106.40;106059;1254;72432;-58
2024/01/26 09:10:13;;;;;;;0.40;0.40;;;;;;;1.92;100.00;100107.81;105052;1259;60474;-58
2024/01/26 09:12:41;;;;;;;0.90;0.60;;;;;;;1.90;100.00;100111.54;105131;1254;60457;-59
2024/01/26 09:15:09;;;;;;;0.80;0.50;;;;;;;1.87;100.00;100107.33;105024;1267;73739;-58
2024/01/26 09:17:37;;;;;;;0.70;0.40;;;;;;;1.83;100.00;100107.87;105057;1258;66791;-56
2024/01/26 09:20:05;;;;;;;0.60;0.50;;;;;;;1.81;100.00;100109.48;105620;1255;73161;-58
2024/01/26 09:22:33;;;;;;;1.60;0.60;;;;;;;1.81;100.00;100114.08;104963;1257;60576;-57
2024/01/26 09:25:00;;;;;;;0.90;0.60;;;;;;;1.85;100.00;100117.95;105208;1254;60768;-57
2024/01/26 09:27:28;;;;;;;1.40;0.70;;;;;;;1.89;100.00;100118.09;105078;1260;72623;-58
2024/01/26 09:29:55;;;;;;;0.70;0.50;;;;;;;1.93;100.00;100117.36;105051;1254;66073;-56
2024/01/26 09:32:22;;;;;;;0.60;0.50;;;;;;;1.96;100.00;100117.17;105242;1254;72801;-59
2024/01/26 09:34:50;;;;;;;3.70;0.60;;;;;;;1.95;100.00;100113.27;104949;1260;60655;-58
2024/01/26 09:37:17;;;;;;;0.80;0.40;;;;;;;1.95;100.00;100117.53;105705;1254;60451;-57
2024/01/26 09:39:45;;;;;;;1.20;0.50;;;;;;;1.95;100.00;100118.06;104960;1259;76127;-58
2024/01/26 09:42:13;;;;;;;0.60;0.40;;;;;;;1.97;100.00;100117.84;105279;1258;69740;-57
2024/01/26 09:44:40;;;;;;;0.50;0.30;;;;;;;1.99;100.00;100122.08;105303;1261;72680;-57
2024/01/26 09:47:08;;;;;;;0.30;0.30;;;;;;;2.01;100.00;100121.36;105169;1261;60518;-58
2024/01/26 09:49:36;;;;;;;0.60;0.40;;;;;;;2.03;100.00;100123.13;104892;1261;60544;-59
2024/01/26 09:52:03;;;;;;;0.40;0.40;;;;;;;2.02;100.00;100126.67;105016;1254;72628;-57
2024/01/26 09:54:31;;;;;;;0.40;0.40;;;;;;;1.99;100.00;100125.27;104892;1259;66851;-59
2024/01/26 09:56:58;;;;;;;0.60;0.40;;;;;;;1.96;100.00;100124.77;104857;1257;73262;-56
2024/01/26 09:59:25;;;;;;;0.50;0.40;;;;;;;1.92;100.00;100127.09;104889;1260;60546;-57
2024/01/26 10:01:53;;;;;;;0.30;0.30;;;;;;;1.91;100.00;100122.67;104902;1254;60435;-57
2024/01/26 10:04:20;;;;;;;0.60;0.30;;;;;;;1.94;100.00;100124.08;104947;1258;72657;-59
2024/01/26 10:06:48;;;;;;;0.30;0.30;;;;;;;1.97;100.00;100124.73;104915;1252;67131;-58
2024/01/26 10:09:15;;;;;;;0.50;0.40;;;;;;;1.95;100.00;100127.61;106149;1260;74678;-57
2024/01/26 10:11:43;;;;;;;0.50;0.30;;;;;;;1.94;100.00;100128.14;108286;1256;58569;-58
2024/01/26 10:14:22;;;;;;;0.40;0.30;;;;;;;1.94;100.00;100134.17;105130;1258;60496;-58
2024/01/26 10:17:02;;;;;;;0.40;0.30;;;;;;;1.93;100.00;100141.08;107707;1254;74536;-57
2024/01/26 10:19:30;;;;;;;1.10;0.30;;;;;;;1.93;100.00;100137.71;106369;1254;66806;-58
2024/01/26 10:21:59;;;;;;;0.20;0.20;;;;;;;1.97;100.00;100140.51;105394;1253;73281;-58
2024/01/26 10:24:28;;;;;;;0.50;0.30;;;;;;;2.00;100.00;100139.07;105258;1254;60636;-57
2024/01/26 10:26:56;;;;;;;0.40;0.30;;;;;;;2.04;100.00;100142.75;105036;1258;60445;-57
2024/01/26 10:29:24;;;;;;;0.50;0.30;;;;;;;2.10;100.00;100145.38;105111;1254;71916;-58
2024/01/26 10:31:52;;;;;;;1.90;0.40;;;;;;;2.13;100.00;100148.17;105068;1254;67238;-57
2024/01/26 10:34:20;;;;;;;0.40;0.40;;;;;;;2.15;100.00;100150.45;108943;1252;73158;-58
2024/01/26 10:36:49;;;;;;;0.60;0.40;;;;;;;2.15;100.00;100152.05;105335;1254;60398;-58
2024/01/26 10:39:28;;;;;;;0.50;0.30;;;;;;;2.13;100.00;100156.50;105184;1254;62491;-58
2024/01/26 10:42:06;;;;;;;0.40;0.30;;;;;;;2.10;100.00;100164.14;105092;1254;73878;-58
2024/01/26 10:44:35;;;;;;;0.20;0.20;;;;;;;2.07;100.00;100168.75;104975;1253;65730;-58
2024/01/26 10:47:04;;;;;;;0.50;0.30;;;;;;;2.07;100.00;100163.44;105184;1256;73321;-58
2024/01/26 10:49:32;;;;;;;1.80;0.20;;;;;;;2.11;100.00;100171.21;104680;1260;61119;-55
2024/01/26 10:52:00;;;;;;;0.50;0.30;;;;;;;2.13;100.00;100175.77;104837;1254;60657;-58
2024/01/26 10:54:27;;;;;;;0.40;0.30;;;;;;;2.15;100.00;100180.20;104870;1254;74386;-58
2024/01/26 10:56:55;;;;;;;0.40;0.30;;;;;;;2.16;100.00;100180.55;104617;1260;65676;-58
2024/01/26 10:59:23;;;;;;;0.40;0.30;;;;;;;2.16;100.00;100181.78;104952;1254;71746;-56
2024/01/26 11:01:50;;;;;;;1.20;0.40;;;;;;;2.16;100.00;100184.26;104954;1257;60549;-58
2024/01/26 11:04:17;;;;;;;0.60;0.40;;;;;;;2.13;100.00;100183.23;105034;1254;60565;-57
2024/01/26 11:06:45;;;;;;;2.40;0.40;;;;;;;2.09;100.00;100184.15;105788;1255;72646;-57
2024/01/26 11:09:15;;;;;;;0.50;0.30;;;;;;;2.06;100.00;100180.43;108869;1251;66941;-58
2024/01/26 11:11:42;;;;;;;0.40;0.30;;;;;;;2.07;100.00;100182.91;109036;1253;72112;-59
2024/01/26 11:14:13;;;;;;;0.30;0.20;;;;;;;2.10;100.00;100185.38;109002;1253;60756;-59
2024/01/26 11:16:42;;;;;;;0.60;0.40;;;;;;;2.12;100.00;100193.67;105246;1253;60511;-57
2024/01/26 11:19:21;;;;;;;0.50;0.40;;;;;;;2.16;100.00;100193.11;109010;1254;73076;-59
2024/01/26 11:21:48;;;;;;;0.60;0.40;;;;;;;2.18;100.00;100199.84;109006;1252;66035;-59
2024/01/26 11:24:19;;;;;;;0.60;0.40;;;;;;;2.19;100.00;100200.71;109091;1251;72685;-59
2024/01/26 11:26:58;;;;;;;0.50;0.50;;;;;;;2.18;100.00;100207.63;109047;1254;58573;-58